createdAt,value
2022-09-22T00:02:29.037Z,2.38
2022-09-22T00:04:35.314Z,2.35
2022-09-22T00:06:46.837Z,2.17
2022-09-22T00:08:56.737Z,2.40
2022-09-22T00:11:05.563Z,2.50
2022-09-22T00:13:09.675Z,2.42
2022-09-22T00:15:13.626Z,2.55
2022-09-22T00:17:19.644Z,2.70
2022-09-22T00:19:38.306Z,2.25
2022-09-22T00:21:44.947Z,2.35
2022-09-22T00:23:50.186Z,2.50
2022-09-22T00:25:55.286Z,2.55
2022-09-22T00:28:01.165Z,2.50
2022-09-22T00:30:05.841Z,2.90
2022-09-22T00:32:23.851Z,2.65
2022-09-22T00:34:35.301Z,2.60
2022-09-22T00:36:39.224Z,2.38
2022-09-22T00:38:45.369Z,2.80
2022-09-22T00:40:59.777Z,2.70
2022-09-22T00:43:21.187Z,2.47
2022-09-22T00:45:29.625Z,2.50
2022-09-22T00:47:50.997Z,2.42
2022-09-22T00:50:09.236Z,2.40
2022-09-22T00:54:42.997Z,2.67
2022-09-22T00:59:31.201Z,2.60
2022-09-22T01:01:40.994Z,2.67
2022-09-22T01:03:44.592Z,2.70
2022-09-22T01:05:51.925Z,3.03
2022-09-22T01:07:58.956Z,2.75
2022-09-22T01:10:08.666Z,2.70
2022-09-22T01:12:19.675Z,2.72
2022-09-22T01:14:55.241Z,3.20
2022-09-22T01:17:10.248Z,3.05
2022-09-22T01:19:58.724Z,3.03
2022-09-22T01:22:32.196Z,2.78
2022-09-22T01:25:14.508Z,2.80
2022-09-22T01:27:55.598Z,2.83
2022-09-22T01:35:58.518Z,3.28
2022-09-22T01:38:48.277Z,3.30
2022-09-22T01:41:11.748Z,3.20
2022-09-22T01:43:51.631Z,3.10
2022-09-22T01:45:57.604Z,3.00
2022-09-22T01:48:15.307Z,3.40
2022-09-22T01:51:07.771Z,3.35
2022-09-22T01:53:20.511Z,3.17
2022-09-22T01:55:39.107Z,3.40
2022-09-22T01:57:57.002Z,3.40
2022-09-22T02:00:13.484Z,3.17
2022-09-22T02:03:10.225Z,3.70
2022-09-22T02:05:37.004Z,3.20
2022-09-22T02:07:46.731Z,3.50
2022-09-22T02:09:53.560Z,3.45
2022-09-22T02:12:02.243Z,3.10
2022-09-22T02:14:06.693Z,2.95
2022-09-22T02:16:11.920Z,3.33
2022-09-22T02:18:27.117Z,3.70
2022-09-22T02:20:33.207Z,3.35
2022-09-22T02:22:39.285Z,3.90
2022-09-22T02:24:46.919Z,3.67
2022-09-22T02:26:50.906Z,3.58
2022-09-22T02:29:04.418Z,3.83
2022-09-22T02:31:21.171Z,3.78
2022-09-22T02:33:27.387Z,4.07
2022-09-22T02:35:35.816Z,3.78
2022-09-22T02:38:11.069Z,3.35
2022-09-22T02:40:44.174Z,3.63
2022-09-22T02:43:07.275Z,3.72
2022-09-22T02:45:29.973Z,4.10
2022-09-22T02:47:51.952Z,3.80
2022-09-22T02:52:00.230Z,4.00
2022-09-22T02:54:05.205Z,3.90
2022-09-22T02:56:11.013Z,3.85
2022-09-22T02:58:19.242Z,3.88
2022-09-22T03:00:23.062Z,3.97
2022-09-22T03:02:29.403Z,4.20
2022-09-22T03:04:33.038Z,4.18
2022-09-22T03:06:36.570Z,3.78
2022-09-22T03:08:40.791Z,4.10
2022-09-22T03:10:46.952Z,3.97
2022-09-22T03:13:15.073Z,4.50
2022-09-22T03:15:16.121Z,4.22
2022-09-22T03:17:19.107Z,3.83
2022-09-22T03:19:22.378Z,3.60
2022-09-22T03:21:28.591Z,3.88
2022-09-22T03:23:31.614Z,3.92
2022-09-22T03:25:34.705Z,3.92
2022-09-22T03:27:40.058Z,4.43
2022-09-22T03:29:43.421Z,4.40
2022-09-22T03:31:47.203Z,4.35
2022-09-22T03:33:52.837Z,4.10
2022-09-22T03:35:56.157Z,4.65
2022-09-22T03:37:59.422Z,5.05
2022-09-22T03:40:04.781Z,4.60
2022-09-22T03:42:08.428Z,5.20
2022-09-22T03:44:14.126Z,5.30
2022-09-22T03:46:18.114Z,5.72
2022-09-22T03:48:23.757Z,5.20
2022-09-22T03:50:27.045Z,5.28
2022-09-22T03:52:30.400Z,4.85
2022-09-22T03:54:33.467Z,5.35
2022-09-22T03:56:36.833Z,4.90
2022-09-22T03:58:41.396Z,4.70
2022-09-22T04:00:44.735Z,4.70
2022-09-22T04:02:53.866Z,5.10
2022-09-22T04:04:57.632Z,4.45
2022-09-22T04:07:06.847Z,4.70
2022-09-22T04:09:13.523Z,5.30
2022-09-22T04:11:17.234Z,4.85
2022-09-22T04:13:20.384Z,5.45
2022-09-22T04:15:23.809Z,4.82
2022-09-22T04:17:27.516Z,5.15
2022-09-22T04:19:32.487Z,4.93
2022-09-22T04:21:35.627Z,4.43
2022-09-22T04:23:39.629Z,4.53
2022-09-22T04:25:43.375Z,4.38
2022-09-22T04:27:46.543Z,4.47
2022-09-22T04:29:51.766Z,4.00
2022-09-22T04:31:57.049Z,4.00
2022-09-22T04:34:02.204Z,3.67
2022-09-22T04:36:09.855Z,4.30
2022-09-22T04:38:15.710Z,4.18
2022-09-22T04:40:24.794Z,4.78
2022-09-22T04:42:28.696Z,4.78
2022-09-22T04:44:34.907Z,4.93
2022-09-22T04:46:41.285Z,4.45
2022-09-22T04:48:44.969Z,4.40
2022-09-22T04:50:48.488Z,4.20
2022-09-22T04:52:55.706Z,4.28
2022-09-22T04:54:59.499Z,4.18
2022-09-22T04:57:03.306Z,3.80
2022-09-22T04:59:06.895Z,3.97
2022-09-22T05:01:13.342Z,3.80
2022-09-22T05:03:21.929Z,3.85
2022-09-22T05:05:31.252Z,3.85
2022-09-22T05:07:35.549Z,3.97
2022-09-22T05:09:39.057Z,4.07
2022-09-22T05:11:42.501Z,3.70
2022-09-22T05:13:46.224Z,3.97
2022-09-22T06:13:54.052Z,3.38
2022-09-22T06:16:48.110Z,3.72
2022-09-22T06:27:10.549Z,2.97
2022-09-22T06:29:17.774Z,2.67
2022-09-22T06:31:23.930Z,2.60
2022-09-22T06:33:31.908Z,2.88
2022-09-22T06:35:41.753Z,2.83
2022-09-22T06:37:48.444Z,3.10
2022-09-22T06:39:53.316Z,2.72
2022-09-22T06:42:02.560Z,2.50
2022-09-22T06:44:09.768Z,2.65
2022-09-22T06:46:13.575Z,2.50
2022-09-22T06:48:19.051Z,2.72
2022-09-22T06:50:22.402Z,2.58
2022-09-22T06:52:25.482Z,2.45
2022-09-22T06:54:28.946Z,2.25
2022-09-22T06:56:37.168Z,2.33
2022-09-22T06:59:05.613Z,2.50
2022-09-22T07:01:05.198Z,2.88
2022-09-22T07:03:21.489Z,2.28
2022-09-22T07:05:23.705Z,2.40
2022-09-22T07:07:30.197Z,1.92
2022-09-22T07:09:32.257Z,2.20
2022-09-22T07:11:54.404Z,2.17
2022-09-22T07:14:00.510Z,2.22
2022-09-22T07:16:06.430Z,2.50
2022-09-22T07:18:08.859Z,2.00
2022-09-22T07:20:14.042Z,2.10
2022-09-22T07:22:18.472Z,2.47
2022-09-22T07:24:20.579Z,2.08
2022-09-22T07:26:27.601Z,1.90
2022-09-22T07:28:35.844Z,2.20
2022-09-22T07:30:38.116Z,2.20
2022-09-22T07:32:40.497Z,1.85
2022-09-22T07:34:43.486Z,2.00
2022-09-22T07:36:45.659Z,2.10
2022-09-22T07:38:50.971Z,1.98
2022-09-22T07:40:53.363Z,2.50
2022-09-22T07:42:56.109Z,2.45
2022-09-22T07:44:59.096Z,2.13
2022-09-22T07:47:02.931Z,2.17
2022-09-22T07:49:05.377Z,2.35
2022-09-22T07:51:19.256Z,2.10
2022-09-22T07:53:21.377Z,1.98
2022-09-22T07:55:24.485Z,1.95
2022-09-22T07:57:26.869Z,1.73
2022-09-22T07:59:28.952Z,1.30
2022-09-22T08:01:32.268Z,1.60
2022-09-22T08:03:34.951Z,1.10
2022-09-22T08:05:37.085Z,1.15
2022-09-22T08:07:39.217Z,1.10
2022-09-22T08:09:41.663Z,1.15
2022-09-22T08:11:43.838Z,1.00
2022-09-22T08:13:57.867Z,1.00
2022-09-22T08:16:01.549Z,1.45
2022-09-22T08:18:03.737Z,1.20
2022-09-22T08:20:08.292Z,1.52
2022-09-22T08:22:10.939Z,1.83
2022-09-22T08:24:15.710Z,2.08
2022-09-22T08:26:17.827Z,2.00
2022-09-22T08:28:20.223Z,1.95
2022-09-22T08:30:22.297Z,2.15
2022-09-22T08:32:24.535Z,2.22
2022-09-22T08:34:27.013Z,1.90
2022-09-22T08:36:29.112Z,1.70
2022-09-22T08:40:36.128Z,2.10
2022-09-22T08:42:39.159Z,1.80
2022-09-22T08:45:38.103Z,1.60
2022-09-22T08:47:52.427Z,1.58
2022-09-22T08:49:54.523Z,1.73
2022-09-22T08:52:04.667Z,1.60
2022-09-22T08:54:07.343Z,1.33
2022-09-22T08:56:37.022Z,1.50
2022-09-22T08:59:04.169Z,1.45
2022-09-22T09:01:25.538Z,1.77
2022-09-22T09:03:42.806Z,1.55
2022-09-22T09:06:08.158Z,1.65
2022-09-22T09:08:39.588Z,1.80
2022-09-22T09:11:15.846Z,1.90
2022-09-22T09:13:46.935Z,1.83
2022-09-22T09:15:50.904Z,1.52
2022-09-22T09:17:59.231Z,1.40
2022-09-22T09:20:17.999Z,1.30
2022-09-22T09:22:30.298Z,1.48
2022-09-22T09:27:23.904Z,1.35
2022-09-22T09:29:33.798Z,1.35
2022-09-22T09:31:51.602Z,1.30
2022-09-22T09:34:06.137Z,1.08
2022-09-22T09:36:21.995Z,1.40
2022-09-22T09:38:32.073Z,1.48
2022-09-22T09:40:35.538Z,1.40
2022-09-22T09:42:38.529Z,1.20
2022-09-22T09:44:41.699Z,1.00
2022-09-22T09:47:27.996Z,1.10
2022-09-22T09:49:34.276Z,0.90
2022-09-22T09:51:44.418Z,0.75
2022-09-22T09:54:00.229Z,0.90
2022-09-22T09:56:05.806Z,0.88
2022-09-22T09:58:19.793Z,0.98
2022-09-22T10:00:25.770Z,0.82
2022-09-22T10:02:32.727Z,0.98
2022-09-22T10:04:43.811Z,0.98
2022-09-22T10:09:46.999Z,1.02
2022-09-22T10:11:59.428Z,1.10
2022-09-22T10:14:02.413Z,1.10
2022-09-22T10:16:25.929Z,1.10
2022-09-22T10:18:34.161Z,1.00
2022-09-22T10:20:39.537Z,1.30
2022-09-22T10:22:43.384Z,1.17
2022-09-22T10:24:59.183Z,0.88
2022-09-22T10:27:07.364Z,0.75
2022-09-22T10:29:13.655Z,1.00
2022-09-22T10:31:23.613Z,0.90
2022-09-22T10:33:26.170Z,1.00
2022-09-22T10:35:31.581Z,1.10
2022-09-22T10:37:34.394Z,1.20
2022-09-22T10:39:54.219Z,1.98
2022-09-22T10:41:57.110Z,1.40
2022-09-22T10:44:34.604Z,1.15
2022-09-22T10:47:01.858Z,1.40
2022-09-22T10:49:22.839Z,1.10
2022-09-22T10:52:01.416Z,1.25
2022-09-22T10:54:19.372Z,1.45
2022-09-22T10:56:37.903Z,1.38
2022-09-22T10:59:04.007Z,1.40
2022-09-22T11:01:46.133Z,1.30
2022-09-22T11:04:07.800Z,1.40
2022-09-22T11:06:44.106Z,1.40
2022-09-22T11:09:29.340Z,1.50
2022-09-22T11:11:50.205Z,1.40
2022-09-22T11:14:04.850Z,1.48
2022-09-22T11:16:13.107Z,1.77
2022-09-22T11:19:03.152Z,1.50
2022-09-22T11:21:13.816Z,1.45
2022-09-22T11:23:25.420Z,1.70
2022-09-22T11:25:39.598Z,1.67
2022-09-22T11:28:02.180Z,1.92
2022-09-22T11:30:17.300Z,1.90
2022-09-22T11:32:40.331Z,1.50
2022-09-22T11:35:14.770Z,1.55
2022-09-22T11:38:07.703Z,1.63
2022-09-22T11:40:38.069Z,1.95
2022-09-22T11:43:08.241Z,1.70
2022-09-22T11:45:33.839Z,1.48
2022-09-22T11:47:51.908Z,1.67
2022-09-22T11:50:44.172Z,1.50
2022-09-22T11:53:23.547Z,1.50
2022-09-22T11:56:08.566Z,1.50
2022-09-22T11:58:19.768Z,1.33
2022-09-22T12:00:35.376Z,1.40
2022-09-22T12:02:41.829Z,1.42
2022-09-22T12:04:51.298Z,1.55
2022-09-22T12:07:13.281Z,1.25
2022-09-22T12:09:39.175Z,0.90
2022-09-22T12:11:43.222Z,1.20
2022-09-22T12:13:49.015Z,1.00
2022-09-22T12:16:37.347Z,0.82
2022-09-22T12:19:15.855Z,0.80
2022-09-22T12:21:49.837Z,1.13
2022-09-22T12:23:52.721Z,0.70
2022-09-22T12:25:59.440Z,0.70
2022-09-22T12:28:02.119Z,1.10
2022-09-22T12:30:13.436Z,1.08
2022-09-22T12:32:34.201Z,1.35
2022-09-22T12:34:44.476Z,1.15
2022-09-22T12:36:48.948Z,0.90
2022-09-22T12:38:51.200Z,0.80
2022-09-22T12:40:56.460Z,0.90
2022-09-22T12:42:58.814Z,1.15
2022-09-22T12:45:10.114Z,1.10
2022-09-22T12:47:31.724Z,0.80
2022-09-22T12:49:34.339Z,0.95
2022-09-22T12:51:36.603Z,0.93
2022-09-22T12:53:43.103Z,0.98
2022-09-22T12:55:46.239Z,1.17
2022-09-22T12:57:52.595Z,1.48
2022-09-22T13:00:33.257Z,2.53
2022-09-22T13:02:44.023Z,2.00
2022-09-22T13:04:58.226Z,2.30
2022-09-22T13:07:00.679Z,3.40
2022-09-22T13:09:02.799Z,1.77
2022-09-22T13:11:08.587Z,1.60
2022-09-22T13:13:22.688Z,1.10
2022-09-22T13:15:27.680Z,0.80
2022-09-22T13:17:43.580Z,1.20
2022-09-22T13:19:55.445Z,0.98
2022-09-22T13:21:57.738Z,0.80
2022-09-22T13:24:03.008Z,0.80
2022-09-22T13:26:11.279Z,0.85
2022-09-22T13:28:19.847Z,0.90
2022-09-22T13:30:22.208Z,0.75
2022-09-22T13:32:24.790Z,1.23
2022-09-22T13:34:33.074Z,0.95
2022-09-22T13:36:35.453Z,0.80
2022-09-22T13:38:50.415Z,1.00
2022-09-22T13:40:59.822Z,0.73
2022-09-22T13:43:08.956Z,0.75
2022-09-22T13:45:21.104Z,0.90
2022-09-22T13:47:25.246Z,0.70
2022-09-22T13:49:41.564Z,0.40
2022-09-22T13:51:57.575Z,0.77
2022-09-22T13:54:00.307Z,0.80
2022-09-22T13:56:02.929Z,1.00
2022-09-22T13:58:10.489Z,0.77
2022-09-22T14:01:01.481Z,0.90
2022-09-22T14:03:04.536Z,0.90
2022-09-22T14:05:28.022Z,1.40
2022-09-22T14:07:45.137Z,0.98
2022-09-22T14:09:54.889Z,0.75
2022-09-22T14:11:57.970Z,0.75
2022-09-22T14:14:02.442Z,0.90
2022-09-22T14:16:27.476Z,0.90
2022-09-22T14:18:30.857Z,0.82
2022-09-22T14:20:33.269Z,1.10
2022-09-22T14:22:43.220Z,1.00
2022-09-22T14:24:50.985Z,1.30
2022-09-22T14:27:04.234Z,0.90
2022-09-22T14:29:20.262Z,1.73
2022-09-22T14:31:28.434Z,1.95
2022-09-22T14:33:36.681Z,2.60
2022-09-22T14:36:03.641Z,2.50
2022-09-22T14:38:13.770Z,1.90
2022-09-22T14:40:26.012Z,1.50
2022-09-22T14:42:31.825Z,1.33
2022-09-22T14:44:50.249Z,1.55
2022-09-22T14:46:55.764Z,1.30
2022-09-22T14:48:58.067Z,1.40
2022-09-22T14:51:16.270Z,1.20
2022-09-22T14:53:33.657Z,1.23
2022-09-22T14:55:46.363Z,1.30
2022-09-22T14:57:50.382Z,1.20
2022-09-22T14:59:55.812Z,1.30
2022-09-22T15:01:58.076Z,0.90
2022-09-22T15:04:27.203Z,0.82
2022-09-22T15:06:39.291Z,0.88
2022-09-22T15:08:50.783Z,0.95
2022-09-22T15:10:57.690Z,1.10
2022-09-22T15:13:41.273Z,1.13
2022-09-22T15:15:48.715Z,0.95
2022-09-22T15:18:04.259Z,1.10
2022-09-22T15:20:14.138Z,1.30
2022-09-22T15:22:16.695Z,1.33
2022-09-22T15:24:24.679Z,1.50
2022-09-22T15:26:29.957Z,1.60
2022-09-22T15:28:35.385Z,2.05
2022-09-22T15:30:39.188Z,1.90
2022-09-22T15:32:47.779Z,1.90
2022-09-22T15:34:51.187Z,1.90
2022-09-22T15:36:54.121Z,1.90
2022-09-22T15:39:01.453Z,1.83
2022-09-22T15:41:04.533Z,1.70
2022-09-22T15:43:13.716Z,1.70
2022-09-22T15:45:21.355Z,1.70
2022-09-22T15:47:24.103Z,2.10
2022-09-22T15:49:26.925Z,2.17
2022-09-22T15:51:29.404Z,2.30
2022-09-22T15:53:33.511Z,2.25
2022-09-22T15:55:36.085Z,2.45
2022-09-22T15:57:38.254Z,2.55
2022-09-22T15:59:40.488Z,2.40
2022-09-22T16:01:45.400Z,2.38
2022-09-22T16:06:56.410Z,2.90
2022-09-22T16:09:05.193Z,2.97
2022-09-22T16:11:46.265Z,3.00
2022-09-22T16:21:16.058Z,1.80
2022-09-22T16:24:03.614Z,1.77
2022-09-22T16:26:06.484Z,1.90
2022-09-22T16:28:10.143Z,2.17
2022-09-22T16:30:13.296Z,2.40
2022-09-22T16:32:15.643Z,2.20
2022-09-22T16:34:17.765Z,2.60
2022-09-22T16:36:22.431Z,2.60
2022-09-22T16:38:24.916Z,2.90
2022-09-22T16:40:27.401Z,2.90
2022-09-22T16:42:29.992Z,2.90
2022-09-22T16:44:33.610Z,2.80
2022-09-22T16:46:36.085Z,2.92
2022-09-22T16:48:41.556Z,2.90
2022-09-22T16:50:46.942Z,3.20
2022-09-22T16:52:49.355Z,3.25
2022-09-22T16:54:52.491Z,3.05
2022-09-22T16:56:56.109Z,3.20
2022-09-22T16:58:59.977Z,3.75
2022-09-22T18:05:11.898Z,5.18
2022-09-22T18:07:19.377Z,4.97
2022-09-22T18:09:31.332Z,5.63
2022-09-22T18:11:38.471Z,5.68
2022-09-22T18:13:47.343Z,7.60
2022-09-22T18:15:50.254Z,5.50
2022-09-22T18:22:41.025Z,4.80
2022-09-22T20:23:01.253Z,6.28
2022-09-22T20:25:27.485Z,5.65
2022-09-22T20:27:39.871Z,5.00
2022-09-22T20:29:44.697Z,6.20
2022-09-22T20:31:52.250Z,6.63
2022-09-22T20:33:57.848Z,6.63
2022-09-22T20:36:19.815Z,5.32
2022-09-22T20:38:58.248Z,6.22
2022-09-22T20:41:09.527Z,6.43
2022-09-22T20:43:18.628Z,6.38
2022-09-22T20:45:24.921Z,6.05
2022-09-22T20:47:33.482Z,6.05
2022-09-22T20:49:38.707Z,5.88
2022-09-22T20:51:49.909Z,6.10
2022-09-22T20:53:53.413Z,6.43
2022-09-22T20:56:12.723Z,7.10
2022-09-22T20:58:20.236Z,6.88
2022-09-22T21:00:28.263Z,7.25
2022-09-22T21:02:33.770Z,6.55
2022-09-22T21:04:39.087Z,7.28
2022-09-22T21:06:47.167Z,8.57
2022-09-22T21:08:52.716Z,7.97
2022-09-22T21:10:56.684Z,8.88
2022-09-22T21:13:25.571Z,9.48
2022-09-22T21:15:29.030Z,9.07
2022-09-22T21:17:32.218Z,9.65
2022-09-22T21:19:40.941Z,9.63
2022-09-22T21:21:43.555Z,9.90
2022-09-22T21:23:50.625Z,9.73
2022-09-22T21:26:01.743Z,10.45
2022-09-22T21:28:08.135Z,11.65
2022-09-22T21:30:14.186Z,11.80
2022-09-22T21:32:17.107Z,11.70
2022-09-22T21:34:19.851Z,11.57
2022-09-22T21:36:28.406Z,11.13
2022-09-22T21:38:32.317Z,12.52
2022-09-22T21:40:36.013Z,11.13
2022-09-22T21:42:39.659Z,11.50
2022-09-22T21:44:44.177Z,10.93
2022-09-22T21:46:49.891Z,10.23
2022-09-22T21:48:58.656Z,10.00
2022-09-22T21:51:05.688Z,9.95
2022-09-22T21:53:08.711Z,10.35
2022-09-22T21:55:12.485Z,9.70
2022-09-22T21:57:15.650Z,8.98
2022-09-22T21:59:24.794Z,8.60
2022-09-22T22:01:33.327Z,8.35
2022-09-22T22:04:14.336Z,8.63
2022-09-22T22:06:45.709Z,8.68
2022-09-22T22:08:57.756Z,8.50
2022-09-22T22:11:10.586Z,8.20
2022-09-22T22:13:13.130Z,8.02
2022-09-22T22:15:16.847Z,8.23
2022-09-22T22:17:19.385Z,8.80
2022-09-22T22:19:24.274Z,8.43
2022-09-22T22:21:30.141Z,8.52
2022-09-22T22:23:39.419Z,7.97
2022-09-22T22:25:42.236Z,7.72
2022-09-22T22:27:45.445Z,8.45
2022-09-22T22:29:47.890Z,8.13
2022-09-22T22:31:51.967Z,7.53
2022-09-22T22:33:55.343Z,7.38
2022-09-22T22:35:58.919Z,7.68
2022-09-22T22:38:02.062Z,7.13
2022-09-22T22:40:08.614Z,7.93
2022-09-22T22:42:11.798Z,7.15
2022-09-22T22:44:14.890Z,6.70
2022-09-22T22:46:18.218Z,6.85
2022-09-22T22:48:20.652Z,7.43
2022-09-22T22:50:23.262Z,7.22
2022-09-22T22:52:25.904Z,7.78
2022-09-22T22:54:28.168Z,7.07
2022-09-22T22:56:30.646Z,7.40
2022-09-22T22:58:37.518Z,7.43
2022-09-22T23:01:25.078Z,6.70
2022-09-22T23:03:28.478Z,7.70
2022-09-22T23:05:31.635Z,7.25
2022-09-22T23:07:34.056Z,7.40
2022-09-22T23:09:36.430Z,7.35
2022-09-22T23:11:40.742Z,7.20
2022-09-22T23:13:51.623Z,7.00
2022-09-22T23:16:07.088Z,6.60
2022-09-22T23:18:10.317Z,6.43
2022-09-22T23:20:13.032Z,7.07
2022-09-22T23:22:15.720Z,6.50
2022-09-22T23:24:20.593Z,6.40
2022-09-22T23:26:23.623Z,7.00
2022-09-22T23:28:29.036Z,6.78
2022-09-22T23:30:35.409Z,7.65
2022-09-22T23:32:38.172Z,7.75
2022-09-22T23:34:41.128Z,7.40
2022-09-22T23:36:44.528Z,7.50
2022-09-22T23:38:48.242Z,8.10
2022-09-22T23:40:51.091Z,7.50
2022-09-22T23:42:54.950Z,7.80
2022-09-22T23:44:57.932Z,7.68
2022-09-22T23:47:01.000Z,7.68
2022-09-22T23:49:07.174Z,6.90
2022-09-22T23:51:10.249Z,7.25
2022-09-22T23:53:15.051Z,7.53
2022-09-22T23:55:18.650Z,7.38
2022-09-22T23:57:24.952Z,7.80
2022-09-22T23:59:28.309Z,7.20
